sensor_id;sensor_type;location;lat;lon;timestamp;P1;durP1;ratioP1;P2;durP2;ratioP2
5245;SDS011;54412;51.206;6.888;2023-12-22T00:01:11;5.80;;;2.67;;
5245;SDS011;54412;51.206;6.888;2023-12-22T00:03:41;7.97;;;2.23;;
5245;SDS011;54412;51.206;6.888;2023-12-22T00:06:07;8.67;;;1.70;;
5245;SDS011;54412;51.206;6.888;2023-12-22T00:08:33;10.47;;;2.17;;
5245;SDS011;54412;51.206;6.888;2023-12-22T00:10:58;5.47;;;2.03;;
5245;SDS011;54412;51.206;6.888;2023-12-22T00:13:24;4.37;;;1.60;;
5245;SDS011;54412;51.206;6.888;2023-12-22T00:15:50;5.33;;;1.30;;
5245;SDS011;54412;51.206;6.888;2023-12-22T00:18:16;4.77;;;1.60;;
5245;SDS011;54412;51.206;6.888;2023-12-22T00:20:41;4.10;;;2.00;;
5245;SDS011;54412;51.206;6.888;2023-12-22T00:23:07;11.70;;;3.17;;
5245;SDS011;54412;51.206;6.888;2023-12-22T00:25:33;5.17;;;2.60;;
5245;SDS011;54412;51.206;6.888;2023-12-22T00:27:58;6.83;;;1.40;;
5245;SDS011;54412;51.206;6.888;2023-12-22T00:30:24;4.93;;;1.70;;
5245;SDS011;54412;51.206;6.888;2023-12-22T00:32:50;4.60;;;1.67;;
5245;SDS011;54412;51.206;6.888;2023-12-22T00:35:15;2.73;;;1.13;;
5245;SDS011;54412;51.206;6.888;2023-12-22T00:37:41;7.47;;;1.37;;
5245;SDS011;54412;51.206;6.888;2023-12-22T00:40:07;6.47;;;1.77;;
5245;SDS011;54412;51.206;6.888;2023-12-22T00:42:34;2.83;;;1.70;;
5245;SDS011;54412;51.206;6.888;2023-12-22T00:45:00;6.50;;;1.60;;
5245;SDS011;54412;51.206;6.888;2023-12-22T00:47:26;5.23;;;1.87;;
5245;SDS011;54412;51.206;6.888;2023-12-22T00:49:53;3.47;;;1.33;;
5245;SDS011;54412;51.206;6.888;2023-12-22T00:52:19;9.60;;;3.20;;
5245;SDS011;54412;51.206;6.888;2023-12-22T00:54:44;7.83;;;2.13;;
5245;SDS011;54412;51.206;6.888;2023-12-22T00:57:10;9.77;;;2.23;;
5245;SDS011;54412;51.206;6.888;2023-12-22T00:59:36;7.37;;;1.90;;
5245;SDS011;54412;51.206;6.888;2023-12-22T01:02:02;9.10;;;3.27;;
5245;SDS011;54412;51.206;6.888;2023-12-22T01:04:28;8.30;;;1.73;;
5245;SDS011;54412;51.206;6.888;2023-12-22T01:06:53;8.90;;;2.03;;
5245;SDS011;54412;51.206;6.888;2023-12-22T01:09:19;8.33;;;1.83;;
5245;SDS011;54412;51.206;6.888;2023-12-22T01:11:45;14.13;;;2.17;;
5245;SDS011;54412;51.206;6.888;2023-12-22T01:14:11;7.70;;;2.03;;
5245;SDS011;54412;51.206;6.888;2023-12-22T01:16:38;6.17;;;1.80;;
5245;SDS011;54412;51.206;6.888;2023-12-22T01:19:04;5.27;;;1.87;;
5245;SDS011;54412;51.206;6.888;2023-12-22T01:21:30;13.10;;;2.30;;
5245;SDS011;54412;51.206;6.888;2023-12-22T01:23:56;5.87;;;1.70;;
5245;SDS011;54412;51.206;6.888;2023-12-22T01:26:23;8.03;;;2.50;;
5245;SDS011;54412;51.206;6.888;2023-12-22T01:28:49;12.10;;;2.10;;
5245;SDS011;54412;51.206;6.888;2023-12-22T01:31:15;8.83;;;2.03;;
5245;SDS011;54412;51.206;6.888;2023-12-22T01:33:41;10.67;;;2.43;;
5245;SDS011;54412;51.206;6.888;2023-12-22T01:36:07;6.57;;;2.23;;
5245;SDS011;54412;51.206;6.888;2023-12-22T01:38:33;7.23;;;1.90;;
5245;SDS011;54412;51.206;6.888;2023-12-22T01:40:58;6.30;;;2.03;;
5245;SDS011;54412;51.206;6.888;2023-12-22T01:43:24;7.83;;;1.90;;
5245;SDS011;54412;51.206;6.888;2023-12-22T01:45:51;8.73;;;1.83;;
5245;SDS011;54412;51.206;6.888;2023-12-22T01:48:22;13.33;;;2.60;;
5245;SDS011;54412;51.206;6.888;2023-12-22T01:50:52;17.23;;;2.93;;
5245;SDS011;54412;51.206;6.888;2023-12-22T01:53:21;7.53;;;1.90;;
5245;SDS011;54412;51.206;6.888;2023-12-22T01:55:49;9.80;;;2.13;;
5245;SDS011;54412;51.206;6.888;2023-12-22T01:58:18;10.20;;;2.20;;
5245;SDS011;54412;51.206;6.888;2023-12-22T02:00:44;8.13;;;2.00;;
5245;SDS011;54412;51.206;6.888;2023-12-22T02:03:11;10.30;;;2.20;;
5245;SDS011;54412;51.206;6.888;2023-12-22T02:05:40;10.43;;;1.93;;
5245;SDS011;54412;51.206;6.888;2023-12-22T02:08:07;10.33;;;2.43;;
5245;SDS011;54412;51.206;6.888;2023-12-22T02:10:33;9.97;;;2.47;;
5245;SDS011;54412;51.206;6.888;2023-12-22T02:12:58;12.73;;;2.50;;
5245;SDS011;54412;51.206;6.888;2023-12-22T02:15:24;7.20;;;2.03;;
5245;SDS011;54412;51.206;6.888;2023-12-22T02:18:02;6.40;;;1.80;;
5245;SDS011;54412;51.206;6.888;2023-12-22T02:20:37;9.60;;;2.47;;
5245;SDS011;54412;51.206;6.888;2023-12-22T02:23:04;9.37;;;2.20;;
5245;SDS011;54412;51.206;6.888;2023-12-22T02:25:29;9.57;;;2.13;;
5245;SDS011;54412;51.206;6.888;2023-12-22T02:28:00;13.97;;;2.93;;
5245;SDS011;54412;51.206;6.888;2023-12-22T02:33:22;6.40;;;1.80;;
5245;SDS011;54412;51.206;6.888;2023-12-22T02:35:52;5.13;;;1.57;;
5245;SDS011;54412;51.206;6.888;2023-12-22T02:38:26;7.17;;;2.00;;
5245;SDS011;54412;51.206;6.888;2023-12-22T02:40:53;11.23;;;1.40;;
5245;SDS011;54412;51.206;6.888;2023-12-22T02:43:20;5.70;;;1.83;;
5245;SDS011;54412;51.206;6.888;2023-12-22T02:45:49;4.13;;;1.40;;
5245;SDS011;54412;51.206;6.888;2023-12-22T02:48:16;2.37;;;1.27;;
5245;SDS011;54412;51.206;6.888;2023-12-22T02:50:42;6.63;;;1.50;;
5245;SDS011;54412;51.206;6.888;2023-12-22T02:53:08;5.13;;;2.03;;
5245;SDS011;54412;51.206;6.888;2023-12-22T02:55:33;2.97;;;1.33;;
5245;SDS011;54412;51.206;6.888;2023-12-22T02:57:59;5.33;;;1.40;;
5245;SDS011;54412;51.206;6.888;2023-12-22T03:00:25;1.20;;;1.10;;
5245;SDS011;54412;51.206;6.888;2023-12-22T03:02:50;8.90;;;1.70;;
5245;SDS011;54412;51.206;6.888;2023-12-22T03:05:16;2.80;;;1.13;;
5245;SDS011;54412;51.206;6.888;2023-12-22T03:07:41;6.07;;;1.77;;
5245;SDS011;54412;51.206;6.888;2023-12-22T03:10:07;2.43;;;1.17;;
5245;SDS011;54412;51.206;6.888;2023-12-22T03:12:33;6.00;;;1.53;;
5245;SDS011;54412;51.206;6.888;2023-12-22T03:14:59;2.33;;;1.13;;
5245;SDS011;54412;51.206;6.888;2023-12-22T03:17:24;2.93;;;1.40;;
5245;SDS011;54412;51.206;6.888;2023-12-22T03:19:50;5.33;;;1.63;;
5245;SDS011;54412;51.206;6.888;2023-12-22T03:22:16;4.53;;;1.23;;
5245;SDS011;54412;51.206;6.888;2023-12-22T03:24:41;3.90;;;1.33;;
5245;SDS011;54412;51.206;6.888;2023-12-22T03:27:07;4.60;;;1.30;;
5245;SDS011;54412;51.206;6.888;2023-12-22T03:29:33;6.00;;;2.07;;
5245;SDS011;54412;51.206;6.888;2023-12-22T03:31:58;3.67;;;1.27;;
5245;SDS011;54412;51.206;6.888;2023-12-22T03:34:24;5.33;;;1.30;;
5245;SDS011;54412;51.206;6.888;2023-12-22T03:36:50;3.40;;;1.33;;
5245;SDS011;54412;51.206;6.888;2023-12-22T03:39:16;6.33;;;1.53;;
5245;SDS011;54412;51.206;6.888;2023-12-22T03:41:41;6.03;;;1.70;;
5245;SDS011;54412;51.206;6.888;2023-12-22T03:44:07;5.03;;;1.60;;
5245;SDS011;54412;51.206;6.888;2023-12-22T03:46:33;4.07;;;1.30;;
5245;SDS011;54412;51.206;6.888;2023-12-22T03:48:58;5.77;;;1.60;;
5245;SDS011;54412;51.206;6.888;2023-12-22T03:51:24;5.00;;;1.53;;
5245;SDS011;54412;51.206;6.888;2023-12-22T03:53:50;4.57;;;2.13;;
5245;SDS011;54412;51.206;6.888;2023-12-22T03:56:15;2.40;;;1.10;;
5245;SDS011;54412;51.206;6.888;2023-12-22T03:58:41;2.33;;;1.40;;
5245;SDS011;54412;51.206;6.888;2023-12-22T04:01:07;4.60;;;1.20;;
5245;SDS011;54412;51.206;6.888;2023-12-22T04:03:33;7.60;;;2.10;;
5245;SDS011;54412;51.206;6.888;2023-12-22T04:06:02;6.47;;;2.03;;
5245;SDS011;54412;51.206;6.888;2023-12-22T04:08:28;8.43;;;1.50;;
5245;SDS011;54412;51.206;6.888;2023-12-22T04:10:54;5.40;;;1.70;;
5245;SDS011;54412;51.206;6.888;2023-12-22T04:13:20;4.27;;;1.53;;
5245;SDS011;54412;51.206;6.888;2023-12-22T04:15:45;4.40;;;1.73;;
5245;SDS011;54412;51.206;6.888;2023-12-22T04:18:11;5.73;;;2.10;;
5245;SDS011;54412;51.206;6.888;2023-12-22T04:20:37;8.60;;;1.80;;
5245;SDS011;54412;51.206;6.888;2023-12-22T04:23:02;7.23;;;1.83;;
5245;SDS011;54412;51.206;6.888;2023-12-22T04:25:28;7.40;;;2.33;;
5245;SDS011;54412;51.206;6.888;2023-12-22T04:27:54;8.30;;;2.20;;
5245;SDS011;54412;51.206;6.888;2023-12-22T04:30:20;8.87;;;2.37;;
5245;SDS011;54412;51.206;6.888;2023-12-22T04:32:45;7.23;;;1.97;;
5245;SDS011;54412;51.206;6.888;2023-12-22T04:35:11;10.70;;;2.53;;
5245;SDS011;54412;51.206;6.888;2023-12-22T04:37:37;16.53;;;3.03;;
5245;SDS011;54412;51.206;6.888;2023-12-22T04:40:02;11.13;;;2.63;;
5245;SDS011;54412;51.206;6.888;2023-12-22T04:42:28;9.50;;;2.53;;
5245;SDS011;54412;51.206;6.888;2023-12-22T04:44:54;12.50;;;3.00;;
5245;SDS011;54412;51.206;6.888;2023-12-22T04:47:20;12.27;;;3.07;;
5245;SDS011;54412;51.206;6.888;2023-12-22T04:49:46;18.03;;;3.83;;
5245;SDS011;54412;51.206;6.888;2023-12-22T04:52:12;15.77;;;3.40;;
5245;SDS011;54412;51.206;6.888;2023-12-22T04:54:38;19.07;;;4.47;;
5245;SDS011;54412;51.206;6.888;2023-12-22T04:57:04;12.77;;;3.27;;
5245;SDS011;54412;51.206;6.888;2023-12-22T04:59:29;21.37;;;3.70;;
5245;SDS011;54412;51.206;6.888;2023-12-22T05:01:55;23.63;;;3.50;;
5245;SDS011;54412;51.206;6.888;2023-12-22T05:04:21;15.00;;;3.33;;
5245;SDS011;54412;51.206;6.888;2023-12-22T05:06:47;19.60;;;4.10;;
5245;SDS011;54412;51.206;6.888;2023-12-22T05:09:13;15.63;;;3.23;;
5245;SDS011;54412;51.206;6.888;2023-12-22T05:11:40;14.30;;;3.83;;
5245;SDS011;54412;51.206;6.888;2023-12-22T05:14:06;14.00;;;2.93;;
5245;SDS011;54412;51.206;6.888;2023-12-22T05:16:32;18.97;;;4.13;;
5245;SDS011;54412;51.206;6.888;2023-12-22T05:18:58;16.13;;;3.20;;
5245;SDS011;54412;51.206;6.888;2023-12-22T05:21:24;15.67;;;4.00;;
5245;SDS011;54412;51.206;6.888;2023-12-22T05:23:50;17.13;;;3.80;;
5245;SDS011;54412;51.206;6.888;2023-12-22T05:26:19;12.87;;;3.40;;
5245;SDS011;54412;51.206;6.888;2023-12-22T05:28:46;17.73;;;4.30;;
5245;SDS011;54412;51.206;6.888;2023-12-22T05:31:14;19.03;;;3.40;;
5245;SDS011;54412;51.206;6.888;2023-12-22T05:33:41;20.53;;;3.40;;
5245;SDS011;54412;51.206;6.888;2023-12-22T05:36:07;23.80;;;3.77;;
5245;SDS011;54412;51.206;6.888;2023-12-22T05:38:36;21.27;;;3.30;;
5245;SDS011;54412;51.206;6.888;2023-12-22T05:41:06;18.67;;;3.93;;
5245;SDS011;54412;51.206;6.888;2023-12-22T05:43:32;16.27;;;3.50;;
5245;SDS011;54412;51.206;6.888;2023-12-22T05:46:01;18.47;;;4.27;;
5245;SDS011;54412;51.206;6.888;2023-12-22T05:48:26;20.83;;;3.70;;
5245;SDS011;54412;51.206;6.888;2023-12-22T05:50:53;10.67;;;3.17;;
5245;SDS011;54412;51.206;6.888;2023-12-22T05:53:21;15.70;;;2.83;;
5245;SDS011;54412;51.206;6.888;2023-12-22T05:55:46;12.63;;;2.97;;
5245;SDS011;54412;51.206;6.888;2023-12-22T05:58:12;16.60;;;3.63;;
5245;SDS011;54412;51.206;6.888;2023-12-22T06:00:38;18.60;;;3.63;;
5245;SDS011;54412;51.206;6.888;2023-12-22T06:03:03;21.33;;;4.37;;
5245;SDS011;54412;51.206;6.888;2023-12-22T06:05:30;12.93;;;2.90;;
5245;SDS011;54412;51.206;6.888;2023-12-22T06:07:56;12.03;;;3.20;;
5245;SDS011;54412;51.206;6.888;2023-12-22T06:10:22;27.00;;;3.67;;
5245;SDS011;54412;51.206;6.888;2023-12-22T06:12:47;15.80;;;4.07;;
5245;SDS011;54412;51.206;6.888;2023-12-22T06:15:13;12.90;;;2.97;;
5245;SDS011;54412;51.206;6.888;2023-12-22T06:17:39;16.30;;;2.90;;
5245;SDS011;54412;51.206;6.888;2023-12-22T06:20:04;17.47;;;3.83;;
5245;SDS011;54412;51.206;6.888;2023-12-22T06:22:31;10.83;;;3.03;;
5245;SDS011;54412;51.206;6.888;2023-12-22T06:24:57;9.67;;;2.40;;
5245;SDS011;54412;51.206;6.888;2023-12-22T06:27:23;9.20;;;2.70;;
5245;SDS011;54412;51.206;6.888;2023-12-22T06:29:48;15.40;;;3.83;;
5245;SDS011;54412;51.206;6.888;2023-12-22T06:32:14;13.43;;;2.60;;
5245;SDS011;54412;51.206;6.888;2023-12-22T06:34:42;15.50;;;3.40;;
5245;SDS011;54412;51.206;6.888;2023-12-22T06:37:07;16.70;;;4.33;;
5245;SDS011;54412;51.206;6.888;2023-12-22T06:39:33;18.10;;;3.67;;
5245;SDS011;54412;51.206;6.888;2023-12-22T06:41:59;19.00;;;3.87;;
5245;SDS011;54412;51.206;6.888;2023-12-22T06:44:24;16.90;;;3.60;;
5245;SDS011;54412;51.206;6.888;2023-12-22T06:46:51;18.43;;;3.57;;
5245;SDS011;54412;51.206;6.888;2023-12-22T06:49:17;15.93;;;3.53;;
5245;SDS011;54412;51.206;6.888;2023-12-22T06:51:43;11.43;;;2.97;;
5245;SDS011;54412;51.206;6.888;2023-12-22T06:54:08;18.90;;;3.20;;
5245;SDS011;54412;51.206;6.888;2023-12-22T06:56:34;14.80;;;2.93;;
5245;SDS011;54412;51.206;6.888;2023-12-22T06:59:00;12.40;;;3.33;;
5245;SDS011;54412;51.206;6.888;2023-12-22T07:01:31;17.43;;;4.73;;
5245;SDS011;54412;51.206;6.888;2023-12-22T07:03:59;16.53;;;3.27;;
5245;SDS011;54412;51.206;6.888;2023-12-22T07:06:30;17.10;;;3.70;;
5245;SDS011;54412;51.206;6.888;2023-12-22T07:11:45;11.67;;;2.60;;
5245;SDS011;54412;51.206;6.888;2023-12-22T07:14:16;12.07;;;3.27;;
5245;SDS011;54412;51.206;6.888;2023-12-22T07:16:42;17.03;;;3.70;;
5245;SDS011;54412;51.206;6.888;2023-12-22T07:19:08;7.10;;;2.73;;
5245;SDS011;54412;51.206;6.888;2023-12-22T07:21:37;12.33;;;2.87;;
5245;SDS011;54412;51.206;6.888;2023-12-22T07:24:04;15.30;;;2.50;;
5245;SDS011;54412;51.206;6.888;2023-12-22T07:26:31;15.80;;;3.13;;
5245;SDS011;54412;51.206;6.888;2023-12-22T07:28:57;10.93;;;2.87;;
5245;SDS011;54412;51.206;6.888;2023-12-22T07:31:23;14.27;;;3.67;;
5245;SDS011;54412;51.206;6.888;2023-12-22T07:33:49;11.43;;;3.00;;
5245;SDS011;54412;51.206;6.888;2023-12-22T07:36:16;8.83;;;2.37;;
5245;SDS011;54412;51.206;6.888;2023-12-22T07:38:46;8.93;;;2.43;;
5245;SDS011;54412;51.206;6.888;2023-12-22T07:41:12;10.33;;;3.60;;
5245;SDS011;54412;51.206;6.888;2023-12-22T07:43:37;11.33;;;2.90;;
5245;SDS011;54412;51.206;6.888;2023-12-22T07:46:03;6.67;;;3.30;;
5245;SDS011;54412;51.206;6.888;2023-12-22T07:48:29;10.10;;;2.73;;
5245;SDS011;54412;51.206;6.888;2023-12-22T07:50:54;11.10;;;3.37;;
5245;SDS011;54412;51.206;6.888;2023-12-22T07:53:20;15.63;;;6.10;;
5245;SDS011;54412;51.206;6.888;2023-12-22T07:55:46;7.27;;;3.63;;
5245;SDS011;54412;51.206;6.888;2023-12-22T07:58:12;6.30;;;2.73;;
5245;SDS011;54412;51.206;6.888;2023-12-22T08:00:38;9.50;;;2.43;;
5245;SDS011;54412;51.206;6.888;2023-12-22T08:03:04;12.20;;;2.60;;
5245;SDS011;54412;51.206;6.888;2023-12-22T08:05:30;10.80;;;2.70;;
5245;SDS011;54412;51.206;6.888;2023-12-22T08:07:56;17.87;;;3.30;;
5245;SDS011;54412;51.206;6.888;2023-12-22T08:10:22;8.93;;;3.27;;
5245;SDS011;54412;51.206;6.888;2023-12-22T08:12:47;15.57;;;3.07;;
5245;SDS011;54412;51.206;6.888;2023-12-22T08:15:13;12.40;;;3.60;;
5245;SDS011;54412;51.206;6.888;2023-12-22T08:17:48;22.20;;;4.40;;
5245;SDS011;54412;51.206;6.888;2023-12-22T08:20:17;21.83;;;5.47;;
5245;SDS011;54412;51.206;6.888;2023-12-22T08:22:46;24.53;;;4.97;;
5245;SDS011;54412;51.206;6.888;2023-12-22T08:25:14;21.63;;;6.03;;
5245;SDS011;54412;51.206;6.888;2023-12-22T08:27:41;26.33;;;6.30;;
5245;SDS011;54412;51.206;6.888;2023-12-22T08:30:07;25.73;;;7.40;;
5245;SDS011;54412;51.206;6.888;2023-12-22T08:32:36;25.07;;;6.93;;
5245;SDS011;54412;51.206;6.888;2023-12-22T08:35:03;43.37;;;10.20;;
5245;SDS011;54412;51.206;6.888;2023-12-22T08:37:29;45.17;;;11.63;;
5245;SDS011;54412;51.206;6.888;2023-12-22T08:39:55;39.57;;;9.97;;
5245;SDS011;54412;51.206;6.888;2023-12-22T08:42:22;42.33;;;11.23;;
5245;SDS011;54412;51.206;6.888;2023-12-22T08:44:51;27.60;;;9.20;;
5245;SDS011;54412;51.206;6.888;2023-12-22T08:47:17;33.80;;;8.37;;
5245;SDS011;54412;51.206;6.888;2023-12-22T08:49:42;37.83;;;8.00;;
5245;SDS011;54412;51.206;6.888;2023-12-22T08:52:08;32.27;;;6.40;;
5245;SDS011;54412;51.206;6.888;2023-12-22T08:54:34;26.23;;;7.00;;
5245;SDS011;54412;51.206;6.888;2023-12-22T08:57:00;42.63;;;7.80;;
5245;SDS011;54412;51.206;6.888;2023-12-22T08:59:27;25.60;;;7.30;;
5245;SDS011;54412;51.206;6.888;2023-12-22T09:01:53;24.10;;;6.33;;
5245;SDS011;54412;51.206;6.888;2023-12-22T09:04:18;30.30;;;8.50;;
5245;SDS011;54412;51.206;6.888;2023-12-22T09:06:47;32.23;;;8.53;;
5245;SDS011;54412;51.206;6.888;2023-12-22T09:09:16;40.03;;;9.07;;
5245;SDS011;54412;51.206;6.888;2023-12-22T09:11:42;34.10;;;9.20;;
5245;SDS011;54412;51.206;6.888;2023-12-22T09:14:09;38.97;;;8.40;;
5245;SDS011;54412;51.206;6.888;2023-12-22T09:16:35;29.60;;;7.73;;
5245;SDS011;54412;51.206;6.888;2023-12-22T09:19:02;44.30;;;7.73;;
5245;SDS011;54412;51.206;6.888;2023-12-22T09:21:29;48.90;;;7.30;;
5245;SDS011;54412;51.206;6.888;2023-12-22T09:23:55;31.07;;;7.10;;
5245;SDS011;54412;51.206;6.888;2023-12-22T09:26:20;32.83;;;7.07;;
5245;SDS011;54412;51.206;6.888;2023-12-22T09:28:46;30.47;;;6.23;;
5245;SDS011;54412;51.206;6.888;2023-12-22T09:31:13;38.80;;;7.70;;
5245;SDS011;54412;51.206;6.888;2023-12-22T09:33:39;33.70;;;7.90;;
5245;SDS011;54412;51.206;6.888;2023-12-22T09:36:07;26.43;;;5.87;;
5245;SDS011;54412;51.206;6.888;2023-12-22T09:38:33;38.47;;;6.77;;
5245;SDS011;54412;51.206;6.888;2023-12-22T09:41:00;27.50;;;6.23;;
5245;SDS011;54412;51.206;6.888;2023-12-22T09:43:26;27.87;;;6.80;;
5245;SDS011;54412;51.206;6.888;2023-12-22T09:45:53;32.50;;;6.20;;
5245;SDS011;54412;51.206;6.888;2023-12-22T09:48:20;29.27;;;5.87;;
5245;SDS011;54412;51.206;6.888;2023-12-22T09:50:52;31.43;;;6.70;;
5245;SDS011;54412;51.206;6.888;2023-12-22T09:53:21;47.97;;;7.33;;
5245;SDS011;54412;51.206;6.888;2023-12-22T09:55:49;33.23;;;7.90;;
5245;SDS011;54412;51.206;6.888;2023-12-22T09:58:15;34.17;;;6.63;;
5245;SDS011;54412;51.206;6.888;2023-12-22T10:00:42;32.00;;;7.70;;
5245;SDS011;54412;51.206;6.888;2023-12-22T10:03:09;27.97;;;5.10;;
5245;SDS011;54412;51.206;6.888;2023-12-22T10:05:38;29.27;;;5.80;;
5245;SDS011;54412;51.206;6.888;2023-12-22T10:08:08;22.13;;;5.40;;
5245;SDS011;54412;51.206;6.888;2023-12-22T10:10:40;30.17;;;5.80;;
5245;SDS011;54412;51.206;6.888;2023-12-22T10:13:06;28.43;;;7.37;;
5245;SDS011;54412;51.206;6.888;2023-12-22T10:15:39;22.53;;;4.90;;
5245;SDS011;54412;51.206;6.888;2023-12-22T10:18:06;23.17;;;4.57;;
5245;SDS011;54412;51.206;6.888;2023-12-22T10:20:32;26.90;;;4.60;;
5245;SDS011;54412;51.206;6.888;2023-12-22T10:22:59;25.50;;;5.30;;
5245;SDS011;54412;51.206;6.888;2023-12-22T10:25:28;17.43;;;4.47;;
5245;SDS011;54412;51.206;6.888;2023-12-22T10:27:54;17.80;;;4.63;;
5245;SDS011;54412;51.206;6.888;2023-12-22T10:30:21;23.13;;;4.80;;
5245;SDS011;54412;51.206;6.888;2023-12-22T10:32:50;21.17;;;4.70;;
5245;SDS011;54412;51.206;6.888;2023-12-22T10:35:21;14.57;;;4.30;;
5245;SDS011;54412;51.206;6.888;2023-12-22T10:37:48;19.73;;;4.53;;
5245;SDS011;54412;51.206;6.888;2023-12-22T10:40:18;17.37;;;4.47;;
5245;SDS011;54412;51.206;6.888;2023-12-22T10:42:44;20.13;;;4.23;;
5245;SDS011;54412;51.206;6.888;2023-12-22T10:45:11;11.40;;;3.13;;
5245;SDS011;54412;51.206;6.888;2023-12-22T10:47:38;12.53;;;4.17;;
5245;SDS011;54412;51.206;6.888;2023-12-22T10:50:05;16.80;;;3.87;;
5245;SDS011;54412;51.206;6.888;2023-12-22T10:52:31;13.70;;;3.40;;
5245;SDS011;54412;51.206;6.888;2023-12-22T10:54:57;17.47;;;3.97;;
5245;SDS011;54412;51.206;6.888;2023-12-22T10:57:24;16.23;;;4.73;;
5245;SDS011;54412;51.206;6.888;2023-12-22T10:59:52;12.70;;;3.17;;
5245;SDS011;54412;51.206;6.888;2023-12-22T11:02:21;12.63;;;3.77;;
5245;SDS011;54412;51.206;6.888;2023-12-22T11:07:29;12.37;;;3.20;;
5245;SDS011;54412;51.206;6.888;2023-12-22T11:10:02;12.53;;;2.77;;
5245;SDS011;54412;51.206;6.888;2023-12-22T11:12:31;8.60;;;3.10;;
5245;SDS011;54412;51.206;6.888;2023-12-22T11:15:01;8.33;;;2.93;;
5245;SDS011;54412;51.206;6.888;2023-12-22T11:17:31;8.33;;;2.97;;
5245;SDS011;54412;51.206;6.888;2023-12-22T11:19:59;10.67;;;2.23;;
5245;SDS011;54412;51.206;6.888;2023-12-22T11:22:25;9.10;;;3.50;;
5245;SDS011;54412;51.206;6.888;2023-12-22T11:24:53;7.67;;;2.37;;
5245;SDS011;54412;51.206;6.888;2023-12-22T11:27:22;12.83;;;3.03;;
5245;SDS011;54412;51.206;6.888;2023-12-22T11:29:51;7.80;;;2.50;;
5245;SDS011;54412;51.206;6.888;2023-12-22T11:32:18;12.07;;;3.20;;
5245;SDS011;54412;51.206;6.888;2023-12-22T11:34:45;6.70;;;3.03;;
5245;SDS011;54412;51.206;6.888;2023-12-22T11:37:12;10.40;;;2.53;;
5245;SDS011;54412;51.206;6.888;2023-12-22T11:39:41;5.03;;;2.27;;
5245;SDS011;54412;51.206;6.888;2023-12-22T11:42:09;6.67;;;2.30;;
5245;SDS011;54412;51.206;6.888;2023-12-22T11:44:44;5.80;;;1.87;;
5245;SDS011;54412;51.206;6.888;2023-12-22T11:47:10;4.20;;;2.23;;
5245;SDS011;54412;51.206;6.888;2023-12-22T11:49:38;9.00;;;2.27;;
5245;SDS011;54412;51.206;6.888;2023-12-22T11:52:14;6.70;;;2.80;;
5245;SDS011;54412;51.206;6.888;2023-12-22T11:59:55;3.90;;;1.70;;
5245;SDS011;54412;51.206;6.888;2023-12-22T12:02:22;4.83;;;1.80;;
5245;SDS011;54412;51.206;6.888;2023-12-22T12:04:48;8.77;;;2.10;;
5245;SDS011;54412;51.206;6.888;2023-12-22T12:13:07;6.93;;;2.00;;
5245;SDS011;54412;51.206;6.888;2023-12-22T12:15:35;2.60;;;1.40;;
5245;SDS011;54412;51.206;6.888;2023-12-22T12:18:02;5.03;;;1.53;;
5245;SDS011;54412;51.206;6.888;2023-12-22T12:20:31;3.67;;;1.50;;
5245;SDS011;54412;51.206;6.888;2023-12-22T12:22:57;6.30;;;1.80;;
5245;SDS011;54412;51.206;6.888;2023-12-22T12:25:23;4.27;;;1.50;;
5245;SDS011;54412;51.206;6.888;2023-12-22T12:28:03;8.77;;;3.60;;
5245;SDS011;54412;51.206;6.888;2023-12-22T12:30:31;5.60;;;2.30;;
5245;SDS011;54412;51.206;6.888;2023-12-22T12:32:59;3.33;;;1.53;;
5245;SDS011;54412;51.206;6.888;2023-12-22T12:35:32;9.43;;;2.10;;
5245;SDS011;54412;51.206;6.888;2023-12-22T12:37:59;4.70;;;1.43;;
5245;SDS011;54412;51.206;6.888;2023-12-22T12:40:25;8.27;;;1.80;;
5245;SDS011;54412;51.206;6.888;2023-12-22T12:42:57;4.50;;;1.23;;
5245;SDS011;54412;51.206;6.888;2023-12-22T12:45:24;7.23;;;2.40;;
5245;SDS011;54412;51.206;6.888;2023-12-22T12:47:54;4.97;;;1.57;;
5245;SDS011;54412;51.206;6.888;2023-12-22T12:50:25;4.60;;;1.63;;
5245;SDS011;54412;51.206;6.888;2023-12-22T12:52:53;4.60;;;2.10;;
5245;SDS011;54412;51.206;6.888;2023-12-22T12:55:21;7.37;;;1.60;;
5245;SDS011;54412;51.206;6.888;2023-12-22T12:57:49;5.43;;;1.97;;
5245;SDS011;54412;51.206;6.888;2023-12-22T13:00:25;6.03;;;1.43;;
5245;SDS011;54412;51.206;6.888;2023-12-22T13:03:15;6.10;;;1.57;;
5245;SDS011;54412;51.206;6.888;2023-12-22T13:05:40;3.13;;;1.60;;
5245;SDS011;54412;51.206;6.888;2023-12-22T13:08:07;3.80;;;1.53;;
5245;SDS011;54412;51.206;6.888;2023-12-22T13:10:34;1.63;;;1.50;;
5245;SDS011;54412;51.206;6.888;2023-12-22T13:13:00;7.93;;;1.97;;
5245;SDS011;54412;51.206;6.888;2023-12-22T13:15:26;3.40;;;1.83;;
5245;SDS011;54412;51.206;6.888;2023-12-22T13:17:51;7.50;;;2.07;;
5245;SDS011;54412;51.206;6.888;2023-12-22T13:20:17;13.03;;;2.03;;
5245;SDS011;54412;51.206;6.888;2023-12-22T13:22:44;3.83;;;1.50;;
5245;SDS011;54412;51.206;6.888;2023-12-22T13:25:09;8.90;;;1.50;;
5245;SDS011;54412;51.206;6.888;2023-12-22T13:27:49;4.33;;;1.40;;
5245;SDS011;54412;51.206;6.888;2023-12-22T13:30:36;9.33;;;1.87;;
5245;SDS011;54412;51.206;6.888;2023-12-22T13:33:05;3.60;;;1.30;;
5245;SDS011;54412;51.206;6.888;2023-12-22T13:35:32;3.40;;;1.60;;
5245;SDS011;54412;51.206;6.888;2023-12-22T13:38:21;2.00;;;1.57;;
5245;SDS011;54412;51.206;6.888;2023-12-22T13:40:47;4.67;;;1.70;;
5245;SDS011;54412;51.206;6.888;2023-12-22T13:43:13;5.30;;;1.50;;
5245;SDS011;54412;51.206;6.888;2023-12-22T13:45:38;3.43;;;1.50;;
5245;SDS011;54412;51.206;6.888;2023-12-22T13:48:05;8.73;;;1.60;;
5245;SDS011;54412;51.206;6.888;2023-12-22T13:50:31;4.40;;;2.37;;
5245;SDS011;54412;51.206;6.888;2023-12-22T13:53:06;3.93;;;1.53;;
5245;SDS011;54412;51.206;6.888;2023-12-22T13:55:36;5.70;;;1.80;;
5245;SDS011;54412;51.206;6.888;2023-12-22T13:58:03;6.63;;;1.40;;
5245;SDS011;54412;51.206;6.888;2023-12-22T14:00:29;4.33;;;2.03;;
5245;SDS011;54412;51.206;6.888;2023-12-22T14:02:56;6.73;;;2.90;;
5245;SDS011;54412;51.206;6.888;2023-12-22T14:05:23;3.07;;;1.40;;
5245;SDS011;54412;51.206;6.888;2023-12-22T14:07:48;7.97;;;1.80;;
5245;SDS011;54412;51.206;6.888;2023-12-22T14:10:15;3.67;;;2.47;;
5245;SDS011;54412;51.206;6.888;2023-12-22T14:12:41;6.20;;;1.87;;
5245;SDS011;54412;51.206;6.888;2023-12-22T14:15:07;22.43;;;5.30;;
5245;SDS011;54412;51.206;6.888;2023-12-22T14:17:37;14.67;;;3.43;;
5245;SDS011;54412;51.206;6.888;2023-12-22T14:20:03;7.87;;;3.20;;
5245;SDS011;54412;51.206;6.888;2023-12-22T14:22:30;16.00;;;6.10;;
5245;SDS011;54412;51.206;6.888;2023-12-22T14:24:55;9.73;;;1.80;;
5245;SDS011;54412;51.206;6.888;2023-12-22T14:27:24;3.80;;;1.30;;
5245;SDS011;54412;51.206;6.888;2023-12-22T14:29:50;5.57;;;1.50;;
5245;SDS011;54412;51.206;6.888;2023-12-22T14:32:15;7.73;;;1.50;;
5245;SDS011;54412;51.206;6.888;2023-12-22T14:34:44;5.50;;;1.80;;
5245;SDS011;54412;51.206;6.888;2023-12-22T14:37:10;5.40;;;1.87;;
5245;SDS011;54412;51.206;6.888;2023-12-22T14:39:36;3.40;;;1.80;;
5245;SDS011;54412;51.206;6.888;2023-12-22T14:42:02;4.63;;;2.00;;
5245;SDS011;54412;51.206;6.888;2023-12-22T14:44:28;6.27;;;2.13;;
5245;SDS011;54412;51.206;6.888;2023-12-22T14:46:54;5.60;;;2.47;;
5245;SDS011;54412;51.206;6.888;2023-12-22T14:49:20;6.10;;;1.90;;
5245;SDS011;54412;51.206;6.888;2023-12-22T14:51:46;4.40;;;1.90;;
5245;SDS011;54412;51.206;6.888;2023-12-22T14:54:16;20.03;;;3.63;;
5245;SDS011;54412;51.206;6.888;2023-12-22T14:56:43;13.60;;;3.60;;
5245;SDS011;54412;51.206;6.888;2023-12-22T14:59:09;11.47;;;2.97;;
5245;SDS011;54412;51.206;6.888;2023-12-22T15:01:35;11.40;;;2.73;;
5245;SDS011;54412;51.206;6.888;2023-12-22T15:04:05;14.03;;;1.77;;
5245;SDS011;54412;51.206;6.888;2023-12-22T15:06:31;4.33;;;1.70;;
5245;SDS011;54412;51.206;6.888;2023-12-22T15:08:57;5.93;;;1.80;;
5245;SDS011;54412;51.206;6.888;2023-12-22T15:11:26;8.47;;;1.97;;
5245;SDS011;54412;51.206;6.888;2023-12-22T15:13:52;6.20;;;1.87;;